Shannock, Rhode Island
Current Conditions -  °F | °C
As of 1:53 PM on Friday 21 Nov 2014 (Local Time) from KWST Reporting Station
Clear Clear  
Wind Chill: 28°   Ceiling: Unl
Heat Index: 36°   Visibility: 10mi
Dew Point:   Wind: 12mph
Humidity: 31%   Direction: 310°NW
Pressure: 30.21"   Gusts: 25mph
Location:  41.45°N, 71.64°W
Report Text: KWST 211853Z AUTO 31010G22KT 280V350 10SM CLR 02/M13 A3021 RMK AO2 SLP230 T00221133
Loading
Personal Weather Stations






























Interactive Weather Map New forecast layout! Learn more

10-Day Weather Forecast

Advertisements
Track Severe Weather on mobile